createdAt,value
2022-10-12T00:19:03.279Z,75.36
2022-10-12T01:12:50.433Z,75.40
2022-10-12T01:27:26.594Z,77.82
2022-10-12T01:30:36.795Z,77.80
2022-10-12T01:32:07.267Z,77.92
2022-10-12T01:35:00.839Z,78.41
2022-10-12T01:36:43.477Z,78.46
2022-10-12T01:37:44.902Z,78.46
2022-10-12T01:39:01.975Z,78.88
2022-10-12T02:02:55.237Z,82.47
2022-10-12T02:04:20.068Z,82.84
2022-10-12T02:05:31.589Z,82.76
2022-10-12T02:07:52.099Z,82.85
2022-10-12T02:08:19.483Z,82.76
2022-10-12T02:08:59.019Z,82.88
2022-10-12T02:10:07.643Z,82.88
2022-10-12T02:11:17.136Z,83.46
2022-10-12T02:12:24.047Z,83.61
2022-10-12T02:13:37.957Z,84.14
2022-10-12T03:04:08.672Z,98.44
2022-10-12T03:05:10.957Z,98.34
2022-10-12T03:06:19.262Z,98.75
2022-10-12T03:23:51.816Z,100.00
2022-10-12T03:24:55.724Z,100.00
2022-10-12T03:25:59.737Z,100.00
2022-10-12T03:27:06.570Z,100.00
2022-10-12T03:28:10.676Z,100.00
2022-10-12T03:29:14.715Z,100.00
2022-10-12T03:30:18.796Z,100.00
2022-10-12T03:31:22.902Z,100.00
2022-10-12T03:32:26.936Z,100.00
2022-10-12T03:33:30.906Z,100.00
2022-10-12T03:34:37.970Z,100.00
2022-10-12T03:35:46.894Z,100.00
2022-10-12T03:36:52.263Z,100.00
2022-10-12T03:37:56.157Z,100.00
2022-10-12T03:39:04.579Z,100.00
2022-10-12T03:40:10.961Z,100.00
2022-10-12T03:41:19.102Z,100.00
2022-10-12T03:42:28.104Z,100.00
2022-10-12T03:43:31.691Z,100.00
2022-10-12T03:44:37.263Z,100.00
2022-10-12T03:45:49.055Z,100.00
2022-10-12T03:48:03.721Z,100.00
2022-10-12T04:13:22.778Z,100.00
2022-10-12T05:10:48.282Z,100.00
2022-10-12T05:13:15.107Z,100.00
2022-10-12T05:14:20.541Z,100.00
2022-10-12T05:15:27.593Z,100.00
2022-10-12T05:16:31.690Z,100.00
2022-10-12T05:17:47.086Z,100.00
2022-10-12T05:36:42.742Z,97.93
2022-10-12T07:41:19.525Z,85.81
2022-10-12T07:42:15.529Z,85.63
2022-10-12T07:43:21.346Z,86.19
2022-10-12T07:44:25.249Z,85.71
2022-10-12T07:45:30.877Z,85.50
2022-10-12T07:46:35.118Z,85.83
2022-10-12T07:47:40.866Z,85.30
2022-10-12T08:46:02.028Z,79.68
2022-10-12T08:47:32.456Z,79.97
2022-10-12T09:22:54.950Z,69.02
2022-10-12T09:45:33.313Z,65.10
2022-10-12T09:56:13.226Z,65.63
2022-10-12T09:56:44.392Z,64.89
2022-10-12T09:58:04.080Z,65.45
2022-10-12T10:01:00.151Z,64.38
2022-10-12T10:02:19.117Z,64.38
2022-10-12T10:03:30.790Z,62.96
2022-10-12T10:04:33.205Z,63.10
2022-10-12T10:05:39.420Z,62.28
2022-10-12T10:06:51.504Z,61.14
2022-10-12T10:08:23.535Z,61.24
2022-10-12T10:09:33.121Z,61.59
2022-10-12T10:10:41.567Z,59.90
2022-10-12T10:11:45.584Z,59.90
2022-10-12T10:12:54.690Z,61.29
2022-10-12T10:14:01.286Z,61.29
2022-10-12T10:15:09.886Z,61.28
2022-10-12T10:17:55.605Z,60.08
2022-10-12T10:19:03.697Z,59.24
2022-10-12T10:20:10.277Z,58.58
2022-10-12T10:24:28.057Z,56.32
2022-10-12T10:25:33.536Z,56.86
2022-10-12T10:26:55.417Z,56.74
2022-10-12T10:28:14.386Z,54.58
2022-10-12T10:29:24.319Z,53.99
2022-10-12T10:30:35.203Z,53.42
2022-10-12T10:31:33.992Z,53.37
2022-10-12T10:32:37.940Z,53.37
2022-10-12T10:33:44.244Z,53.42
2022-10-12T10:34:48.142Z,53.10
2022-10-12T10:36:25.731Z,53.41
2022-10-12T10:37:33.420Z,53.41
2022-10-12T10:38:55.149Z,54.27
2022-10-12T10:40:00.076Z,54.03
2022-10-12T10:41:06.969Z,53.28
2022-10-12T10:42:24.811Z,53.00
2022-10-12T10:43:40.791Z,51.71
2022-10-12T10:46:12.217Z,51.41
2022-10-12T10:48:50.535Z,50.60
2022-10-12T10:49:03.003Z,51.45
2022-10-12T10:50:02.553Z,50.74
2022-10-12T10:51:10.083Z,51.89
2022-10-12T10:52:33.712Z,53.17
2022-10-12T10:53:47.661Z,53.17
2022-10-12T10:55:20.281Z,52.90
2022-10-12T10:56:26.994Z,52.90
2022-10-12T10:57:31.544Z,53.62
2022-10-12T10:58:47.160Z,53.49
2022-10-12T11:00:26.381Z,51.82
2022-10-12T11:01:34.718Z,52.42
2022-10-12T12:36:37.586Z,51.74
2022-10-12T12:41:36.978Z,52.58
2022-10-12T13:29:23.543Z,52.61
2022-10-12T13:30:43.117Z,52.61
2022-10-12T13:31:49.209Z,52.32
2022-10-12T13:33:10.651Z,52.37
2022-10-12T13:33:13.244Z,51.89
2022-10-12T13:34:25.904Z,52.35
2022-10-12T13:35:49.578Z,52.12
2022-10-12T13:37:04.878Z,52.12
2022-10-12T13:38:34.204Z,51.13
2022-10-12T13:39:45.335Z,51.13
2022-10-12T13:41:00.151Z,49.64
2022-10-12T13:42:08.683Z,49.15
2022-10-12T13:43:29.039Z,49.15
2022-10-12T13:46:00.428Z,49.31
2022-10-12T14:31:57.585Z,54.82
2022-10-12T14:33:21.140Z,54.82
2022-10-12T14:34:36.532Z,55.61
2022-10-12T14:35:40.813Z,53.75
2022-10-12T14:37:01.190Z,53.75
2022-10-12T15:31:51.158Z,62.46
2022-10-12T15:33:09.225Z,62.46
2022-10-12T15:34:08.257Z,62.73
2022-10-12T15:35:24.240Z,62.71
2022-10-12T15:36:36.065Z,62.91
2022-10-12T17:13:28.584Z,72.13
2022-10-12T17:40:13.674Z,73.65
2022-10-12T17:44:43.743Z,73.48
2022-10-12T17:45:49.188Z,73.56
2022-10-12T17:46:54.893Z,74.17
2022-10-12T17:47:58.746Z,74.35
2022-10-12T17:49:02.616Z,74.35
2022-10-12T17:50:07.038Z,74.26
2022-10-12T17:51:11.945Z,74.32
2022-10-12T17:52:17.412Z,74.85
2022-10-12T17:53:21.627Z,74.85
2022-10-12T17:54:26.434Z,74.88
2022-10-12T17:55:47.623Z,74.88
2022-10-12T17:56:39.056Z,74.78
2022-10-12T17:57:43.018Z,74.78
2022-10-12T17:58:46.978Z,74.48
2022-10-12T17:59:50.918Z,74.48
2022-10-12T18:00:54.984Z,74.85
2022-10-12T18:02:02.652Z,75.21
2022-10-12T18:03:09.278Z,75.16
2022-10-12T18:04:13.923Z,75.16
2022-10-12T18:05:17.986Z,75.08
2022-10-12T18:06:24.150Z,75.51
2022-10-12T18:07:28.173Z,75.51
2022-10-12T18:08:33.613Z,75.47
2022-10-12T18:09:39.054Z,75.47
2022-10-12T18:10:42.982Z,75.78
2022-10-12T18:11:53.439Z,75.78
2022-10-12T18:12:53.209Z,75.61
2022-10-12T18:13:58.327Z,76.12
2022-10-12T18:15:02.547Z,76.09
2022-10-12T18:16:11.438Z,75.89
2022-10-12T18:17:17.017Z,75.96
2022-10-12T18:18:24.054Z,75.96
2022-10-12T18:19:31.240Z,75.99
2022-10-12T18:20:35.478Z,75.99
2022-10-12T18:21:45.479Z,76.17
2022-10-12T18:22:49.246Z,76.20
2022-10-12T18:23:55.283Z,75.37
2022-10-12T18:25:03.556Z,75.70
2022-10-12T18:26:17.827Z,75.73
2022-10-12T18:27:20.224Z,75.63
2022-10-12T18:28:24.235Z,75.90
2022-10-12T18:29:29.939Z,76.22
2022-10-12T18:33:27.303Z,76.09
2022-10-12T19:12:00.722Z,78.90
2022-10-12T19:15:11.784Z,78.62
2022-10-12T19:44:29.800Z,80.46
2022-10-12T19:44:32.995Z,80.59
2022-10-12T19:45:40.804Z,80.65
2022-10-12T19:46:46.868Z,80.58
2022-10-12T19:47:52.496Z,80.90
2022-10-12T19:49:01.090Z,80.90
2022-10-12T19:50:08.880Z,80.79
2022-10-12T19:51:55.417Z,80.49
2022-10-12T19:55:28.167Z,79.63
2022-10-12T19:56:32.281Z,80.61
2022-10-12T19:57:49.239Z,80.23
2022-10-12T19:58:44.861Z,80.23
2022-10-12T19:59:51.414Z,80.32
2022-10-12T20:01:03.576Z,80.08
2022-10-12T20:02:11.230Z,80.29
2022-10-12T20:03:18.296Z,80.00
2022-10-12T20:05:47.773Z,80.27
2022-10-12T20:06:51.827Z,79.94
2022-10-12T20:08:00.794Z,80.39
2022-10-12T20:09:08.086Z,80.58
2022-10-12T20:10:12.112Z,80.58
2022-10-12T20:11:20.450Z,80.30
2022-10-12T20:12:27.802Z,79.83
2022-10-12T20:13:32.404Z,79.83
2022-10-12T20:14:39.093Z,80.13
2022-10-12T20:15:43.091Z,80.13
2022-10-12T20:16:48.416Z,81.02
2022-10-12T20:17:54.004Z,80.96
2022-10-12T20:18:58.086Z,81.23
2022-10-12T20:20:02.468Z,81.11
2022-10-12T20:21:09.005Z,80.75
2022-10-12T20:22:12.923Z,80.89
2022-10-12T20:24:37.078Z,81.17
2022-10-12T20:24:39.972Z,81.32
2022-10-12T20:25:45.619Z,81.50
2022-10-12T20:27:04.430Z,81.50
2022-10-12T20:27:55.527Z,80.95
2022-10-12T20:29:01.652Z,81.30
2022-10-12T20:30:07.845Z,81.01
2022-10-12T20:31:13.648Z,80.95
2022-10-12T20:32:19.395Z,81.17
2022-10-12T20:33:49.606Z,81.07
2022-10-12T20:34:52.084Z,81.03
2022-10-12T20:36:01.623Z,81.03
2022-10-12T20:37:57.384Z,81.40
2022-10-12T20:38:25.654Z,81.96
2022-10-12T20:39:28.962Z,81.81
2022-10-12T20:40:33.107Z,81.19
2022-10-12T20:41:45.864Z,81.38
2022-10-12T20:42:49.011Z,81.93
2022-10-12T20:43:58.894Z,81.73
2022-10-12T20:45:03.044Z,82.11
2022-10-12T20:46:09.940Z,81.68
2022-10-12T20:47:14.095Z,81.55
2022-10-12T20:49:41.395Z,82.11
2022-10-12T20:50:51.429Z,82.55
2022-10-12T20:51:51.160Z,82.55
2022-10-12T20:52:56.713Z,82.20
2022-10-12T20:54:05.990Z,82.31
2022-10-12T20:55:14.059Z,82.31
2022-10-12T20:56:53.838Z,81.97
2022-10-12T21:08:44.508Z,82.95
2022-10-12T21:09:48.503Z,83.00
2022-10-12T21:10:52.776Z,82.94
2022-10-12T21:11:58.526Z,82.89
2022-10-12T21:13:02.688Z,82.89
2022-10-12T21:14:23.507Z,82.80
2022-10-12T21:15:26.911Z,83.01
2022-10-12T21:19:17.530Z,83.07
2022-10-12T21:20:21.602Z,83.12
2022-10-12T21:21:29.209Z,83.38
2022-10-12T21:22:37.095Z,83.42
2022-10-12T21:23:43.166Z,83.35
2022-10-12T21:24:50.422Z,83.19
2022-10-12T21:26:01.316Z,83.40
2022-10-12T21:27:17.322Z,83.40
2022-10-12T21:28:15.359Z,83.38
2022-10-12T21:29:31.174Z,83.98
2022-10-12T21:30:27.433Z,83.93
2022-10-12T21:31:32.803Z,84.21
2022-10-12T21:32:37.346Z,84.21
2022-10-12T21:33:46.867Z,84.55
2022-10-12T21:34:53.869Z,84.28
2022-10-12T21:36:15.476Z,84.36
2022-10-12T21:37:16.389Z,84.28
2022-10-12T21:38:20.429Z,84.75
2022-10-12T21:39:24.435Z,85.03
2022-10-12T21:40:30.058Z,84.92
2022-10-12T21:41:37.819Z,84.91
2022-10-12T21:42:43.472Z,84.91
2022-10-12T21:43:52.798Z,85.06
2022-10-12T21:45:22.703Z,85.17
2022-10-12T21:46:16.563Z,85.19
2022-10-12T21:47:20.457Z,85.35
2022-10-12T21:48:31.008Z,85.26
2022-10-12T21:50:21.677Z,85.40
2022-10-12T21:50:47.287Z,85.76
2022-10-12T21:51:56.078Z,85.80
2022-10-12T21:53:01.713Z,85.80
2022-10-12T21:54:06.829Z,86.71
2022-10-12T21:55:15.004Z,86.24
2022-10-12T21:56:21.010Z,86.13
2022-10-12T21:57:27.826Z,86.49
2022-10-12T21:58:33.433Z,86.62
2022-10-12T21:59:41.702Z,86.47
2022-10-12T22:00:45.181Z,86.33
2022-10-12T22:01:52.649Z,86.40
2022-10-12T22:02:58.241Z,86.11
2022-10-12T22:04:06.810Z,86.31
2022-10-12T22:05:10.872Z,86.31
2022-10-12T22:06:18.728Z,86.28
2022-10-12T22:07:23.907Z,86.28
2022-10-12T22:08:29.917Z,86.45
2022-10-12T22:09:37.131Z,86.65
2022-10-12T22:10:41.323Z,86.96
2022-10-12T22:11:48.171Z,86.94
2022-10-12T22:12:53.770Z,86.94
2022-10-12T22:26:11.339Z,88.03
2022-10-12T22:27:15.392Z,88.03
2022-10-12T22:28:21.804Z,88.23
2022-10-12T22:29:27.519Z,87.87
2022-10-12T22:30:35.403Z,87.80
2022-10-12T23:19:18.370Z,86.56
2022-10-12T23:35:06.299Z,86.31
2022-10-12T23:36:13.722Z,86.52
2022-10-12T23:37:19.246Z,86.08
2022-10-12T23:38:23.508Z,86.33
2022-10-12T23:39:30.904Z,86.16
2022-10-12T23:40:42.836Z,85.91
2022-10-12T23:41:46.921Z,86.04
2022-10-12T23:42:50.897Z,85.81
2022-10-12T23:43:54.994Z,85.80
2022-10-12T23:44:59.020Z,85.74
2022-10-12T23:46:06.909Z,85.74
2022-10-12T23:48:33.153Z,85.51
2022-10-12T23:49:40.870Z,84.88
2022-10-12T23:51:51.332Z,85.10
2022-10-12T23:53:58.119Z,85.83
2022-10-12T23:55:03.311Z,85.18
2022-10-12T23:56:09.355Z,85.30
2022-10-12T23:57:41.631Z,85.66
2022-10-12T23:58:26.662Z,85.51
2022-10-12T23:59:33.504Z,85.47
